Time;durP1;ratioP1;P1;durP2;ratioP2;P2;SDS_P1;SDS_P2;PMS_P1;PMS_P2;Temp;Humidity;BMP_temperature;BMP_pressure;BME280_temperature;BME280_humidity;BME280_pressure;Samples;Min_cycle;Max_cycle;Signal;HPM_P1;HPM_P2
2022/05/25 00:01:08;;;;;;;6.03;3.50;;;;;;;;;;5032668;28;20211;-84
2022/05/25 00:04:13;;;;;;;4.80;3.63;;;;;;;;;;5032220;28;20200;-85
2022/05/25 00:07:18;;;;;;;8.47;3.63;;;;;;;;;;5021517;28;20180;-85
2022/05/25 00:10:22;;;;;;;5.13;4.23;;;;;;;;;;5021108;28;20216;-85
2022/05/25 00:13:27;;;;;;;8.63;4.53;;;;;;;;;;5021032;28;20196;-84
2022/05/25 00:16:31;;;;;;;8.30;4.00;;;;;;;;;;5020700;28;20192;-84
2022/05/25 00:22:58;;;;;;;4.70;3.47;;;;;;;;;;5031801;28;20188;-84
2022/05/25 00:26:02;;;;;;;5.23;3.93;;;;;;;;;;5043771;28;20540;-84
2022/05/25 00:29:06;;;;;;;6.90;3.67;;;;;;;;;;5031965;28;20184;-84
2022/05/25 00:32:10;;;;;;;4.33;3.13;;;;;;;;;;5032840;28;20173;-85
2022/05/25 00:35:18;;;;;;;4.47;3.83;;;;;;;;;;5024621;28;20172;-84
2022/05/25 00:38:22;;;;;;;4.70;3.73;;;;;;;;;;5024258;28;20176;-84
2022/05/25 00:41:29;;;;;;;5.80;4.03;;;;;;;;;;5024596;28;20215;-84
2022/05/25 00:44:34;;;;;;;7.77;4.07;;;;;;;;;;5035901;28;20204;-84
2022/05/25 00:47:41;;;;;;;4.33;3.60;;;;;;;;;;5035855;28;20176;-85
2022/05/25 00:54:15;;;;;;;5.67;3.80;;;;;;;;;;5035492;28;20184;-84
2022/05/25 00:57:24;;;;;;;5.27;3.93;;;;;;;;;;5035822;28;20647;-84
2022/05/25 01:00:30;;;;;;;4.90;3.23;;;;;;;;;;5023849;28;20212;-84
2022/05/25 01:03:34;;;;;;;7.47;4.03;;;;;;;;;;5035006;28;20508;-84
2022/05/25 01:07:03;;;;;;;7.53;3.40;;;;;;;;;;5046739;28;20176;-84
2022/05/25 01:10:11;;;;;;;5.00;3.70;;;;;;;;;;5046852;28;20220;-84
2022/05/25 01:13:27;;;;;;;4.90;4.03;;;;;;;;;;5023281;28;20210;-84
2022/05/25 01:16:47;;;;;;;5.37;3.97;;;;;;;;;;5023574;28;20184;-85
2022/05/25 01:20:08;;;;;;;4.73;3.30;;;;;;;;;;5023692;28;20216;-85
2022/05/25 01:23:41;;;;;;;7.13;4.00;;;;;;;;;;5023281;28;20184;-84
2022/05/25 01:27:00;;;;;;;7.73;3.90;;;;;;;;;;5041068;28;20181;-84
2022/05/25 01:30:10;;;;;;;5.20;3.70;;;;;;;;;;5027390;28;20219;-84
2022/05/25 01:33:52;;;;;;;8.33;3.87;;;;;;;;;;5033559;28;20650;-84
2022/05/25 01:37:13;;;;;;;9.73;4.23;;;;;;;;;;5029054;28;20520;-84
2022/05/25 01:40:23;;;;;;;5.53;3.90;;;;;;;;;;5034203;28;20212;-84
2022/05/25 01:43:51;;;;;;;5.80;3.87;;;;;;;;;;5022866;28;20177;-84
2022/05/25 01:47:00;;;;;;;4.33;3.43;;;;;;;;;;5033541;28;20176;-84
2022/05/25 01:50:12;;;;;;;4.57;3.80;;;;;;;;;;5024035;28;20231;-84
2022/05/25 01:53:20;;;;;;;3.73;3.43;;;;;;;;;;5033473;28;20184;-84
2022/05/25 01:56:28;;;;;;;3.73;3.43;;;;;;;;;;5045541;28;20176;-84
2022/05/25 01:59:32;;;;;;;8.00;4.10;;;;;;;;;;5022333;28;20516;-84
2022/05/25 02:06:27;;;;;;;5.50;4.03;;;;;;;;;;5033546;28;20208;-84
2022/05/25 02:10:10;;;;;;;5.23;4.00;;;;;;;;;;5022397;28;20180;-84
2022/05/25 02:13:28;;;;;;;5.70;4.13;;;;;;;;;;5022641;28;20172;-84
2022/05/25 02:16:52;;;;;;;5.07;4.20;;;;;;;;;;5022510;28;20176;-84
2022/05/25 02:20:06;;;;;;;4.80;4.30;;;;;;;;;;5022368;28;20220;-85
2022/05/25 02:23:21;;;;;;;5.03;3.70;;;;;;;;;;5044945;28;20184;-84
2022/05/25 02:26:35;;;;;;;4.27;3.87;;;;;;;;;;5033013;28;20212;-84
2022/05/25 02:29:44;;;;;;;6.00;4.27;;;;;;;;;;5021743;28;20619;-84
2022/05/25 02:33:00;;;;;;;4.83;4.17;;;;;;;;;;5044449;28;20184;-84
2022/05/25 02:36:08;;;;;;;6.97;4.00;;;;;;;;;;5033249;28;20196;-84
2022/05/25 02:39:13;;;;;;;5.93;4.27;;;;;;;;;;5032792;28;20196;-84
2022/05/25 02:42:17;;;;;;;4.57;4.07;;;;;;;;;;5021575;28;20172;-84
2022/05/25 02:45:21;;;;;;;6.47;4.43;;;;;;;;;;5032316;28;20544;-84
2022/05/25 02:48:25;;;;;;;4.90;3.87;;;;;;;;;;5032472;28;20196;-84
2022/05/25 02:51:29;;;;;;;5.97;4.07;;;;;;;;;;5021287;28;20216;-84
2022/05/25 02:54:33;;;;;;;8.03;4.10;;;;;;;;;;5032243;28;20184;-84
2022/05/25 02:57:37;;;;;;;5.70;4.00;;;;;;;;;;5043806;28;20192;-84
2022/05/25 03:00:43;;;;;;;6.93;4.63;;;;;;;;;;5043528;28;20224;-84
2022/05/25 03:03:47;;;;;;;7.70;4.73;;;;;;;;;;5032242;28;20192;-84
2022/05/25 03:06:51;;;;;;;7.20;4.27;;;;;;;;;;5021695;28;20208;-84
2022/05/25 03:09:55;;;;;;;4.47;4.00;;;;;;;;;;5021298;28;20216;-84
2022/05/25 03:13:00;;;;;;;4.50;4.00;;;;;;;;;;5038244;28;20188;-84
2022/05/25 03:16:07;;;;;;;5.47;4.33;;;;;;;;;;5021962;28;20176;-84
2022/05/25 03:19:11;;;;;;;5.13;3.93;;;;;;;;;;5021208;28;20196;-85
2022/05/25 03:22:15;;;;;;;4.23;3.83;;;;;;;;;;5021259;28;20196;-85
2022/05/25 03:25:20;;;;;;;6.33;4.27;;;;;;;;;;5002098;28;20647;-85
2022/05/25 03:28:24;;;;;;;8.23;4.40;;;;;;;;;;5011580;28;20638;-85
2022/05/25 03:31:28;;;;;;;4.40;3.60;;;;;;;;;;5030945;28;20224;-84
2022/05/25 03:34:32;;;;;;;4.40;4.00;;;;;;;;;;5032035;28;20188;-84
2022/05/25 03:37:37;;;;;;;5.73;4.13;;;;;;;;;;5031743;28;20192;-84
2022/05/25 03:40:41;;;;;;;6.77;3.67;;;;;;;;;;5031535;28;20223;-84
2022/05/25 03:43:46;;;;;;;7.37;4.47;;;;;;;;;;5042992;28;20192;-84
2022/05/25 03:46:51;;;;;;;11.73;4.07;;;;;;;;;;5031448;28;20220;-84
2022/05/25 03:49:55;;;;;;;6.43;4.10;;;;;;;;;;5031116;28;20568;-84
2022/05/25 03:52:59;;;;;;;8.97;4.33;;;;;;;;;;5021781;28;20180;-84
2022/05/25 03:56:05;;;;;;;4.47;4.07;;;;;;;;;;5043247;28;20188;-84
2022/05/25 03:59:09;;;;;;;4.80;4.03;;;;;;;;;;5020410;28;20177;-84
2022/05/25 04:02:14;;;;;;;6.77;4.60;;;;;;;;;;5031693;28;20543;-84
2022/05/25 04:05:18;;;;;;;7.67;4.57;;;;;;;;;;5043478;28;20208;-84
2022/05/25 04:08:22;;;;;;;5.47;4.63;;;;;;;;;;5034653;28;20176;-84
2022/05/25 04:11:27;;;;;;;6.73;5.60;;;;;;;;;;5023985;28;20207;-84
2022/05/25 04:14:31;;;;;;;6.90;6.07;;;;;;;;;;5035437;28;20188;-84
2022/05/25 04:17:35;;;;;;;8.93;5.63;;;;;;;;;;5024466;28;20172;-84
2022/05/25 04:20:39;;;;;;;10.97;5.37;;;;;;;;;;5034919;28;20216;-84
2022/05/25 04:23:43;;;;;;;11.17;6.20;;;;;;;;;;5034604;28;20658;-84
2022/05/25 04:26:48;;;;;;;6.67;5.63;;;;;;;;;;5045946;28;20219;-84
2022/05/25 04:29:52;;;;;;;6.33;5.73;;;;;;;;;;5046314;28;20211;-84
2022/05/25 04:32:56;;;;;;;6.47;5.77;;;;;;;;;;5034859;28;20184;-84
2022/05/25 04:36:00;;;;;;;5.67;5.07;;;;;;;;;;5034447;28;20176;-84
2022/05/25 04:39:04;;;;;;;9.93;6.20;;;;;;;;;;5034500;28;20184;-84
2022/05/25 04:42:09;;;;;;;10.87;5.77;;;;;;;;;;5023368;28;20184;-84
2022/05/25 04:45:13;;;;;;;6.03;5.43;;;;;;;;;;5034391;28;20184;-84
2022/05/25 04:48:21;;;;;;;7.10;5.87;;;;;;;;;;5035009;28;20619;-84
2022/05/25 04:51:25;;;;;;;7.07;5.67;;;;;;;;;;5069365;23;20236;-81
2022/05/25 04:54:29;;;;;;;6.13;5.03;;;;;;;;;;5044864;28;20638;-81
2022/05/25 04:57:33;;;;;;;5.20;4.50;;;;;;;;;;5034587;28;20196;-82
2022/05/25 05:00:37;;;;;;;5.80;4.63;;;;;;;;;;5024272;28;20220;-83
2022/05/25 05:03:42;;;;;;;4.77;4.27;;;;;;;;;;5033737;28;20180;-82
2022/05/25 05:06:47;;;;;;;5.10;4.37;;;;;;;;;;5033137;28;20212;-82
2022/05/25 05:09:51;;;;;;;4.83;3.80;;;;;;;;;;5033226;28;20507;-82
2022/05/25 05:12:55;;;;;;;6.97;3.50;;;;;;;;;;5033112;28;20176;-82
2022/05/25 05:16:04;;;;;;;4.90;4.40;;;;;;;;;;5021816;28;20173;-82
2022/05/25 05:19:09;;;;;;;5.67;4.53;;;;;;;;;;5032696;28;20184;-82
2022/05/25 05:22:36;;;;;;;4.80;4.30;;;;;;;;;;5033146;28;20520;-82
2022/05/25 05:25:41;;;;;;;4.30;3.90;;;;;;;;;;5033059;28;20212;-82
2022/05/25 05:28:45;;;;;;;5.27;3.90;;;;;;;;;;5056754;28;20176;-82
2022/05/25 05:31:49;;;;;;;8.97;3.73;;;;;;;;;;5032782;28;20215;-82
2022/05/25 05:34:53;;;;;;;6.17;3.83;;;;;;;;;;5056090;28;20176;-81
2022/05/25 05:37:58;;;;;;;6.37;4.47;;;;;;;;;;5021683;28;20176;-82
2022/05/25 05:41:02;;;;;;;4.23;3.83;;;;;;;;;;5043849;28;20563;-83
2022/05/25 05:44:09;;;;;;;6.50;3.50;;;;;;;;;;5033004;28;20180;-82
2022/05/25 05:47:19;;;;;;;7.77;4.20;;;;;;;;;;5021608;28;20204;-82
2022/05/25 05:50:24;;;;;;;6.67;5.90;;;;;;;;;;5032078;28;20220;-82
2022/05/25 05:53:29;;;;;;;5.53;4.90;;;;;;;;;;5043744;28;20287;-82
2022/05/25 05:56:34;;;;;;;4.73;4.20;;;;;;;;;;5044168;28;20619;-82
2022/05/25 05:59:38;;;;;;;6.33;3.87;;;;;;;;;;5031947;28;20192;-82
2022/05/25 06:02:43;;;;;;;5.63;3.97;;;;;;;;;;5032336;28;20180;-82
2022/05/25 06:05:47;;;;;;;3.50;3.20;;;;;;;;;;5032254;28;20203;-82
2022/05/25 06:08:51;;;;;;;4.90;3.67;;;;;;;;;;5043790;28;20176;-82
2022/05/25 06:11:56;;;;;;;5.80;3.40;;;;;;;;;;5043231;28;20220;-82
2022/05/25 06:19:25;;;;;;;5.70;3.47;;;;;;;;;;5020610;28;20180;-81
2022/05/25 06:21:48;;;;;;;4.03;2.43;;;;;;;;;;5043235;28;20220;-82
2022/05/25 06:24:52;;;;;;;4.17;2.90;;;;;;;;;;5031622;28;20196;-82
2022/05/25 06:27:56;;;;;;;9.23;2.80;;;;;;;;;;5031283;28;20223;-82
2022/05/25 06:31:01;;;;;;;2.43;2.23;;;;;;;;;;5030734;28;20212;-82
2022/05/25 06:34:05;;;;;;;5.37;2.77;;;;;;;;;;5042934;28;20179;-82
2022/05/25 06:37:15;;;;;;;3.97;2.80;;;;;;;;;;5031689;28;20188;-83
2022/05/25 06:40:19;;;;;;;4.23;2.97;;;;;;;;;;5031162;28;20607;-83
2022/05/25 06:43:23;;;;;;;3.27;2.97;;;;;;;;;;5031209;28;20180;-83
2022/05/25 06:46:27;;;;;;;4.67;2.90;;;;;;;;;;5031556;28;20662;-82
2022/05/25 06:49:32;;;;;;;3.60;3.20;;;;;;;;;;5042504;28;20180;-82
2022/05/25 06:52:36;;;;;;;3.87;3.23;;;;;;;;;;5042800;28;20172;-82
2022/05/25 06:55:40;;;;;;;4.40;3.40;;;;;;;;;;5019718;28;20180;-82
2022/05/25 06:58:45;;;;;;;3.60;3.17;;;;;;;;;;5031059;28;20200;-82
2022/05/25 07:01:49;;;;;;;4.93;3.50;;;;;;;;;;5019200;28;20682;-82
2022/05/25 07:04:54;;;;;;;4.27;3.50;;;;;;;;;;5030554;28;20638;-82
2022/05/25 07:07:58;;;;;;;4.80;4.30;;;;;;;;;;5030840;28;20208;-82
2022/05/25 07:11:02;;;;;;;4.73;4.33;;;;;;;;;;5019356;28;20212;-82
2022/05/25 07:14:07;;;;;;;5.93;4.50;;;;;;;;;;5018986;28;20199;-82
2022/05/25 07:17:10;;;;;;;5.10;4.60;;;;;;;;;;5030545;28;20204;-82
2022/05/25 07:20:14;;;;;;;4.87;4.37;;;;;;;;;;5019183;28;20219;-82
2022/05/25 07:23:19;;;;;;;4.43;4.03;;;;;;;;;;5019150;28;20659;-82
2022/05/25 07:26:25;;;;;;;6.23;4.53;;;;;;;;;;5041880;28;20223;-82
2022/05/25 07:29:29;;;;;;;4.30;3.90;;;;;;;;;;5030715;28;20192;-82
2022/05/25 07:32:34;;;;;;;4.17;3.70;;;;;;;;;;5019266;28;20204;-82
2022/05/25 07:35:38;;;;;;;4.70;4.30;;;;;;;;;;5019098;28;20180;-82
2022/05/25 07:38:47;;;;;;;4.90;3.70;;;;;;;;;;5030543;28;20173;-82
2022/05/25 07:41:56;;;;;;;6.37;3.47;;;;;;;;;;5018673;28;20216;-82
2022/05/25 07:45:01;;;;;;;3.53;2.60;;;;;;;;;;5053683;28;20199;-82
2022/05/25 07:48:06;;;;;;;2.83;2.53;;;;;;;;;;5029987;28;20200;-82
2022/05/25 07:51:10;;;;;;;3.07;2.70;;;;;;;;;;5018455;28;20223;-82
2022/05/25 07:54:14;;;;;;;4.80;2.77;;;;;;;;;;5053471;28;20686;-82
2022/05/25 07:57:18;;;;;;;2.90;2.60;;;;;;;;;;5030185;28;20195;-82
2022/05/25 08:00:25;;;;;;;3.80;3.10;;;;;;;;;;5029919;28;20215;-82
2022/05/25 08:06:52;;;;;;;5.97;3.07;;;;;;;;;;5041232;28;20212;-82
2022/05/25 08:10:03;;;;;;;3.83;2.43;;;;;;;;;;5029897;28;20184;-82
2022/05/25 08:13:07;;;;;;;3.17;2.63;;;;;;;;;;5030147;28;20532;-83
2022/05/25 08:16:11;;;;;;;2.93;2.53;;;;;;;;;;5041568;28;20176;-82
2022/05/25 08:19:16;;;;;;;3.23;2.73;;;;;;;;;;5041134;28;20192;-82
2022/05/25 08:22:20;;;;;;;2.53;2.10;;;;;;;;;;5029612;28;20196;-82
2022/05/25 08:25:24;;;;;;;2.80;2.10;;;;;;;;;;5029528;28;20180;-82
2022/05/25 08:28:28;;;;;;;2.90;2.13;;;;;;;;;;5041325;28;20204;-82
2022/05/25 08:31:32;;;;;;;1.97;1.80;;;;;;;;;;5018522;28;20216;-82
2022/05/25 08:34:37;;;;;;;3.07;1.80;;;;;;;;;;5053311;28;20176;-82
2022/05/25 08:37:41;;;;;;;2.20;2.00;;;;;;;;;;5041201;28;20172;-82
2022/05/25 08:40:46;;;;;;;2.80;1.80;;;;;;;;;;5040960;28;20212;-82
2022/05/25 08:43:51;;;;;;;2.80;2.00;;;;;;;;;;5029947;28;20188;-82
2022/05/25 08:46:59;;;;;;;2.50;2.30;;;;;;;;;;5040836;28;20212;-82
2022/05/25 08:50:04;;;;;;;3.00;2.00;;;;;;;;;;5040989;28;20180;-82
2022/05/25 08:53:11;;;;;;;3.20;2.37;;;;;;;;;;5030234;28;20181;-82
2022/05/25 08:56:29;;;;;;;3.60;2.03;;;;;;;;;;5044953;28;20180;-82
2022/05/25 08:59:41;;;;;;;5.47;1.90;;;;;;;;;;5032976;28;20177;-82
2022/05/25 09:02:53;;;;;;;2.40;2.20;;;;;;;;;;5044353;28;20180;-82
2022/05/25 09:06:16;;;;;;;4.07;1.87;;;;;;;;;;5044891;28;20180;-82
2022/05/25 09:09:34;;;;;;;3.00;1.80;;;;;;;;;;5044357;28;20180;-82
2022/05/25 09:12:51;;;;;;;3.87;1.93;;;;;;;;;;5044467;28;20180;-82
2022/05/25 09:19:26;;;;;;;7.63;1.97;;;;;;;;;;5032380;28;20177;-82
2022/05/25 09:22:33;;;;;;;3.40;1.63;;;;;;;;;;5021601;28;20180;-82
2022/05/25 09:25:38;;;;;;;5.20;1.90;;;;;;;;;;5032582;28;20199;-82
2022/05/25 09:28:46;;;;;;;2.37;1.90;;;;;;;;;;5033073;28;20200;-82
2022/05/25 09:32:18;;;;;;;3.63;1.90;;;;;;;;;;5043722;28;20215;-82
2022/05/25 09:35:28;;;;;;;2.70;1.53;;;;;;;;;;5032785;28;20173;-82
2022/05/25 09:38:56;;;;;;;4.90;2.00;;;;;;;;;;5021707;28;20627;-83
2022/05/25 09:42:06;;;;;;;3.27;1.57;;;;;;;;;;5044143;28;20211;-82
2022/05/25 09:45:14;;;;;;;2.73;1.30;;;;;;;;;;5032290;28;20180;-82
2022/05/25 09:48:24;;;;;;;3.63;1.83;;;;;;;;;;5020480;28;20224;-82
2022/05/25 09:51:45;;;;;;;1.70;1.20;;;;;;;;;;5042989;28;20219;-82
2022/05/25 09:54:57;;;;;;;1.87;1.27;;;;;;;;;;5020869;28;20214;-82
2022/05/25 09:58:07;;;;;;;3.80;1.00;;;;;;;;;;5032045;28;20176;-82
2022/05/25 10:01:30;;;;;;;3.20;1.00;;;;;;;;;;5020996;28;20223;-82
2022/05/25 10:04:51;;;;;;;1.67;1.30;;;;;;;;;;5031154;28;20623;-82
2022/05/25 10:08:15;;;;;;;3.80;1.17;;;;;;;;;;5031600;28;20213;-82
2022/05/25 10:11:28;;;;;;;4.90;1.00;;;;;;;;;;5031467;28;20227;-87
2022/05/25 10:14:39;;;;;;;3.27;0.90;;;;;;;;;;5043196;28;20182;-86
2022/05/25 10:17:48;;;;;;;1.43;0.90;;;;;;;;;;5016098;28;20185;-86
2022/05/25 10:20:53;;;;;;;1.37;0.83;;;;;;;;;;5024930;28;20258;-86
2022/05/25 10:23:58;;;;;;;2.07;0.73;;;;;;;;;;5001430;28;20192;-86
2022/05/25 10:27:03;;;;;;;3.17;1.20;;;;;;;;;;5011773;28;20545;-86
2022/05/25 10:37:06;;;;;;;1.52;0.90;;;;;;;;;;5011244;28;20185;-86
2022/05/25 10:40:10;;;;;;;1.58;0.65;;;;;;;;;;5034888;28;20212;-86
2022/05/25 10:43:17;;;;;;;3.38;1.05;;;;;;;;;;5022543;28;20517;-86
2022/05/25 10:46:21;;;;;;;4.17;0.87;;;;;;;;;;5007391;28;20193;-86
2022/05/25 10:49:36;;;;;;;2.17;0.70;;;;;;;;;;5023615;28;20172;-90
2022/05/25 10:52:45;;;;;;;1.43;0.80;;;;;;;;;;5030212;28;20206;-86
2022/05/25 10:56:12;;;;;;;1.90;0.90;;;;;;;;;;5030840;28;20173;-87
2022/05/25 10:59:47;;;;;;;0.67;0.50;;;;;;;;;;5030697;28;20197;-86
2022/05/25 11:03:03;;;;;;;1.43;0.70;;;;;;;;;;5021980;28;20659;-86
2022/05/25 11:06:34;;;;;;;1.57;0.70;;;;;;;;;;5022209;28;20187;-86
2022/05/25 11:09:57;;;;;;;1.97;0.77;;;;;;;;;;5054057;23;20230;-87
2022/05/25 11:13:26;;;;;;;5.43;0.70;;;;;;;;;;5022120;28;20199;-89
2022/05/25 11:16:59;;;;;;;3.13;0.70;;;;;;;;;;4999614;28;20179;-88
2022/05/25 11:20:10;;;;;;;3.28;0.93;;;;;;;;;;5030037;28;20228;-88
2022/05/25 11:23:50;;;;;;;2.25;0.82;;;;;;;;;;5018291;28;20188;-88
2022/05/25 11:27:17;;;;;;;1.63;0.70;;;;;;;;;;5010133;28;20218;-88
2022/05/25 11:30:45;;;;;;;1.48;0.70;;;;;;;;;;5023059;28;20214;-88
2022/05/25 11:34:09;;;;;;;3.10;0.60;;;;;;;;;;5041678;28;20545;-89
2022/05/25 11:37:47;;;;;;;0.93;0.70;;;;;;;;;;5030271;28;20182;-88
2022/05/25 11:41:06;;;;;;;2.50;0.80;;;;;;;;;;5018910;28;20213;-88
2022/05/25 11:44:41;;;;;;;2.22;0.68;;;;;;;;;;5019148;28;20522;-88
2022/05/25 11:47:49;;;;;;;4.03;0.70;;;;;;;;;;5021902;28;20225;-88
2022/05/25 11:51:06;;;;;;;2.97;0.80;;;;;;;;;;5031466;28;20218;-88
2022/05/25 11:54:28;;;;;;;1.87;0.70;;;;;;;;;;5032640;28;20644;-89
2022/05/25 11:57:37;;;;;;;2.10;1.10;;;;;;;;;;5021794;28;20632;-88
2022/05/25 12:00:58;;;;;;;1.97;0.80;;;;;;;;;;5047154;28;20215;-88
2022/05/25 12:04:52;;;;;;;5.17;0.97;;;;;;;;;;5043005;28;20644;-88
2022/05/25 12:08:08;;;;;;;1.40;0.70;;;;;;;;;;5031904;28;20211;-89
2022/05/25 12:11:34;;;;;;;2.50;0.50;;;;;;;;;;5028032;28;20177;-89
2022/05/25 12:15:12;;;;;;;2.00;0.80;;;;;;;;;;5015158;28;20191;-88
2022/05/25 12:18:22;;;;;;;2.87;0.90;;;;;;;;;;5018727;28;20181;-87
2022/05/25 12:21:37;;;;;;;1.80;0.80;;;;;;;;;;5018988;28;20182;-88
2022/05/25 12:24:45;;;;;;;2.20;0.77;;;;;;;;;;5040919;28;20193;-87
2022/05/25 12:27:53;;;;;;;1.77;0.87;;;;;;;;;;5030047;28;20224;-88
2022/05/25 12:31:02;;;;;;;3.07;0.60;;;;;;;;;;5045453;28;20201;-87
2022/05/25 12:34:06;;;;;;;0.90;0.60;;;;;;;;;;5033206;28;20183;-87
2022/05/25 12:37:14;;;;;;;0.83;0.57;;;;;;;;;;5022091;28;20524;-87
2022/05/25 12:40:31;;;;;;;1.42;0.68;;;;;;;;;;5044633;28;20211;-87
2022/05/25 12:43:38;;;;;;;4.03;0.70;;;;;;;;;;5022131;28;20535;-87
2022/05/25 12:51:05;;;;;;;0.80;0.52;;;;;;;;;;5032938;28;20227;-88
2022/05/25 12:54:21;;;;;;;3.38;0.77;;;;;;;;;;5014228;28;20177;-84
2022/05/25 12:57:37;;;;;;;4.78;0.82;;;;;;;;;;5001909;28;20188;-86
2022/05/25 13:01:01;;;;;;;2.53;0.77;;;;;;;;;;5002133;28;20679;-85
2022/05/25 13:04:08;;;;;;;2.78;0.68;;;;;;;;;;5002821;28;20185;-85
2022/05/25 13:07:34;;;;;;;1.92;0.50;;;;;;;;;;5018795;28;20205;-82
2022/05/25 13:10:38;;;;;;;1.15;0.75;;;;;;;;;;5032507;28;20236;-88
2022/05/25 13:13:43;;;;;;;3.53;0.70;;;;;;;;;;5021428;28;20631;-88
2022/05/25 13:16:48;;;;;;;1.25;0.70;;;;;;;;;;5021749;28;20182;-88
2022/05/25 13:19:52;;;;;;;1.33;0.70;;;;;;;;;;5021559;28;20549;-87
2022/05/25 13:23:02;;;;;;;1.48;0.57;;;;;;;;;;5021854;28;20199;-87
2022/05/25 13:26:08;;;;;;;3.13;0.50;;;;;;;;;;5033636;28;20628;-87
2022/05/25 13:29:42;;;;;;;1.38;0.65;;;;;;;;;;5021390;28;20221;-87
2022/05/25 13:32:56;;;;;;;3.13;0.70;;;;;;;;;;5032782;28;20185;-84
2022/05/25 13:36:15;;;;;;;1.10;0.50;;;;;;;;;;5020916;28;20193;-84
2022/05/25 13:39:23;;;;;;;2.88;0.75;;;;;;;;;;5012167;28;20215;-83
2022/05/25 13:42:27;;;;;;;3.58;0.50;;;;;;;;;;5023996;28;20178;-84
2022/05/25 13:45:40;;;;;;;2.38;0.50;;;;;;;;;;5012648;28;20184;-84
2022/05/25 13:48:52;;;;;;;1.45;0.40;;;;;;;;;;5034990;28;20211;-84
2022/05/25 13:52:30;;;;;;;5.20;0.80;;;;;;;;;;5013098;28;20186;-84
2022/05/25 13:55:35;;;;;;;3.20;0.68;;;;;;;;;;5017468;28;20187;-84
2022/05/25 13:58:46;;;;;;;2.55;0.65;;;;;;;;;;5032401;28;20173;-84
2022/05/25 14:01:50;;;;;;;4.65;0.82;;;;;;;;;;5020923;28;20185;-84
2022/05/25 14:04:59;;;;;;;5.00;0.82;;;;;;;;;;5020723;28;20178;-84
2022/05/25 14:11:54;;;;;;;9.57;1.10;;;;;;;;;;5031613;28;20175;-84
2022/05/25 14:14:58;;;;;;;3.42;0.95;;;;;;;;;;5021070;28;20180;-84
2022/05/25 14:18:02;;;;;;;2.55;0.60;;;;;;;;;;5021417;28;20181;-84
2022/05/25 14:21:06;;;;;;;2.88;0.63;;;;;;;;;;5032793;28;20201;-84
2022/05/25 14:24:13;;;;;;;1.45;0.60;;;;;;;;;;5031731;28;20184;-85
2022/05/25 14:27:25;;;;;;;1.92;0.80;;;;;;;;;;5020833;28;20631;-85
2022/05/25 14:30:33;;;;;;;5.00;0.90;;;;;;;;;;5028637;28;20216;-85
2022/05/25 14:33:37;;;;;;;3.25;0.60;;;;;;;;;;5014327;28;20188;-85
2022/05/25 14:36:46;;;;;;;1.70;0.50;;;;;;;;;;5031095;28;20645;-85
2022/05/25 14:40:01;;;;;;;3.42;0.80;;;;;;;;;;5031621;28;20218;-85
2022/05/25 14:43:05;;;;;;;1.73;0.50;;;;;;;;;;5030867;28;20531;-85
2022/05/25 14:46:15;;;;;;;3.78;1.00;;;;;;;;;;5019531;28;20180;-85
2022/05/25 14:49:18;;;;;;;2.00;0.50;;;;;;;;;;5000219;28;20235;-84
2022/05/25 14:52:26;;;;;;;1.55;0.57;;;;;;;;;;5016932;28;20186;-85
2022/05/25 14:55:32;;;;;;;4.55;0.60;;;;;;;;;;5016704;28;20187;-85
2022/05/25 14:58:50;;;;;;;2.88;0.70;;;;;;;;;;5019844;28;20183;-84
2022/05/25 15:01:57;;;;;;;2.28;0.70;;;;;;;;;;5042646;28;20186;-84
2022/05/25 15:05:24;;;;;;;2.45;0.68;;;;;;;;;;5020775;28;20187;-84
2022/05/25 15:08:32;;;;;;;2.60;0.98;;;;;;;;;;5042733;28;20208;-85
2022/05/25 15:11:42;;;;;;;1.08;0.70;;;;;;;;;;5018619;28;20537;-85
2022/05/25 15:18:39;;;;;;;3.97;1.40;;;;;;;;;;5051418;28;20191;-86
2022/05/25 15:21:48;;;;;;;2.75;1.10;;;;;;;;;;5042984;28;20192;-86
2022/05/25 15:25:02;;;;;;;2.08;0.70;;;;;;;;;;5029931;28;20198;-85
2022/05/25 15:33:19;;;;;;;3.28;2.85;;;;;;;;;;5053719;28;20186;-89
2022/05/25 15:36:23;;;;;;;1.73;0.68;;;;;;;;;;5019073;28;20179;-86
2022/05/25 15:39:33;;;;;;;1.13;0.60;;;;;;;;;;5018057;28;20217;-85
2022/05/25 15:42:37;;;;;;;1.45;0.70;;;;;;;;;;5021927;28;20194;-88
2022/05/25 15:45:44;;;;;;;0.82;0.52;;;;;;;;;;5024011;28;20195;-90
2022/05/25 15:48:55;;;;;;;2.97;1.20;;;;;;;;;;5020113;28;20249;-90
2022/05/25 15:52:00;;;;;;;3.20;0.90;;;;;;;;;;5027145;28;20186;-90
2022/05/25 15:55:06;;;;;;;0.80;0.73;;;;;;;;;;5019372;28;20184;-89
2022/05/25 15:58:11;;;;;;;2.20;0.90;;;;;;;;;;5028742;28;20180;-90
2022/05/25 16:01:19;;;;;;;4.43;1.43;;;;;;;;;;5031793;28;20173;-90
2022/05/25 16:04:39;;;;;;;1.77;0.60;;;;;;;;;;5016887;28;20178;-90
2022/05/25 16:11:07;;;;;;;1.60;1.00;;;;;;;;;;5015009;28;20177;-89
2022/05/25 16:14:12;;;;;;;2.00;0.87;;;;;;;;;;5034684;28;20181;-89
2022/05/25 16:17:16;;;;;;;1.50;1.20;;;;;;;;;;5009315;28;20343;-85
2022/05/25 16:20:20;;;;;;;1.93;0.90;;;;;;;;;;5003403;28;20585;-85
2022/05/25 16:23:24;;;;;;;2.30;0.80;;;;;;;;;;5032809;28;20200;-85
2022/05/25 16:26:29;;;;;;;3.50;0.90;;;;;;;;;;5034240;28;20176;-86
2022/05/25 16:29:33;;;;;;;1.80;0.80;;;;;;;;;;5031537;28;20227;-86
2022/05/25 16:32:37;;;;;;;4.60;1.20;;;;;;;;;;5023261;28;20180;-85
2022/05/25 16:35:42;;;;;;;1.43;0.93;;;;;;;;;;5022493;28;20254;-85
2022/05/25 16:38:48;;;;;;;2.93;0.80;;;;;;;;;;5033097;28;20500;-85
2022/05/25 16:41:53;;;;;;;3.37;1.00;;;;;;;;;;5044624;28;20188;-85
2022/05/25 16:44:57;;;;;;;1.90;0.90;;;;;;;;;;5025230;28;20192;-84
2022/05/25 16:48:01;;;;;;;3.23;1.00;;;;;;;;;;5027445;28;20187;-85
2022/05/25 16:51:06;;;;;;;2.80;1.13;;;;;;;;;;5022297;28;20180;-85
2022/05/25 16:54:10;;;;;;;1.67;0.90;;;;;;;;;;5033655;28;20181;-81
2022/05/25 16:57:14;;;;;;;5.60;1.00;;;;;;;;;;5022723;28;20176;-82
2022/05/25 17:00:19;;;;;;;1.63;0.90;;;;;;;;;;5044142;28;20673;-80
2022/05/25 17:03:25;;;;;;;1.37;0.80;;;;;;;;;;5044884;28;20191;-80
2022/05/25 17:06:29;;;;;;;3.40;1.00;;;;;;;;;;5045071;28;20184;-80
2022/05/25 17:09:33;;;;;;;2.87;0.90;;;;;;;;;;5079973;23;20231;-84
2022/05/25 17:12:38;;;;;;;2.20;0.90;;;;;;;;;;5026016;28;20189;-84
2022/05/25 17:15:42;;;;;;;1.70;0.90;;;;;;;;;;5012479;28;20173;-84
2022/05/25 17:22:10;;;;;;;1.17;0.70;;;;;;;;;;5012234;28;20197;-84
2022/05/25 17:25:14;;;;;;;1.10;0.80;;;;;;;;;;5004089;28;20185;-87
2022/05/25 17:28:18;;;;;;;3.77;0.80;;;;;;;;;;4982392;28;20517;-87
2022/05/25 17:31:23;;;;;;;2.83;0.77;;;;;;;;;;4982310;28;20680;-87
2022/05/25 17:34:27;;;;;;;2.40;0.60;;;;;;;;;;5011368;28;20197;-87
2022/05/25 17:44:20;;;;;;;2.57;0.77;;;;;;;;;;5023047;28;20193;-87
2022/05/25 17:47:24;;;;;;;2.17;0.70;;;;;;;;;;5001276;28;20181;-87
2022/05/25 17:50:33;;;;;;;1.20;0.80;;;;;;;;;;5012019;28;20225;-87
2022/05/25 17:53:37;;;;;;;0.90;0.60;;;;;;;;;;5011566;28;20200;-87
2022/05/25 17:56:43;;;;;;;1.00;0.70;;;;;;;;;;5001287;28;20181;-87
2022/05/25 17:59:47;;;;;;;0.67;0.50;;;;;;;;;;5000389;28;20683;-87
2022/05/25 18:02:52;;;;;;;4.70;0.60;;;;;;;;;;4996709;28;20185;-87
2022/05/25 18:05:56;;;;;;;1.27;0.60;;;;;;;;;;5012469;28;20181;-87
2022/05/25 18:09:05;;;;;;;2.30;0.73;;;;;;;;;;5011480;28;20193;-87
2022/05/25 18:12:12;;;;;;;3.70;0.50;;;;;;;;;;5012116;28;20612;-87
2022/05/25 18:15:24;;;;;;;0.60;0.60;;;;;;;;;;5000538;28;20189;-87
2022/05/25 18:18:28;;;;;;;3.63;0.70;;;;;;;;;;5023361;28;20185;-87
2022/05/25 18:21:32;;;;;;;1.03;0.60;;;;;;;;;;5000114;28;20208;-87
2022/05/25 18:24:42;;;;;;;1.57;0.70;;;;;;;;;;5002803;28;20189;-87
2022/05/25 18:27:47;;;;;;;3.83;0.90;;;;;;;;;;4996340;28;20200;-85
2022/05/25 18:30:51;;;;;;;0.93;0.77;;;;;;;;;;4992788;28;20232;-85
2022/05/25 18:33:55;;;;;;;1.43;0.90;;;;;;;;;;5011015;28;20197;-84
2022/05/25 18:37:01;;;;;;;4.40;0.77;;;;;;;;;;5011678;28;20204;-85
2022/05/25 18:40:07;;;;;;;1.70;0.70;;;;;;;;;;5009683;28;20695;-85
2022/05/25 18:43:12;;;;;;;3.03;0.73;;;;;;;;;;4996035;28;20200;-85
2022/05/25 18:46:19;;;;;;;3.70;1.00;;;;;;;;;;5002679;28;20644;-84
2022/05/25 18:49:23;;;;;;;2.27;0.87;;;;;;;;;;5026760;28;20188;-83
2022/05/25 18:52:27;;;;;;;2.00;0.80;;;;;;;;;;5011236;28;20513;-84
2022/05/25 18:55:31;;;;;;;3.23;0.63;;;;;;;;;;5000147;28;20516;-84
2022/05/25 18:58:35;;;;;;;0.70;0.70;;;;;;;;;;5019893;28;20196;-84
2022/05/25 19:01:40;;;;;;;0.83;0.70;;;;;;;;;;5022456;28;20711;-85
2022/05/25 19:04:44;;;;;;;3.03;0.80;;;;;;;;;;5010924;28;20173;-85
2022/05/25 19:07:48;;;;;;;1.27;0.90;;;;;;;;;;5010633;28;20189;-85
2022/05/25 19:10:52;;;;;;;0.97;0.67;;;;;;;;;;4999152;28;20224;-85
2022/05/25 19:13:56;;;;;;;1.27;0.80;;;;;;;;;;5010771;28;20177;-85
2022/05/25 19:17:00;;;;;;;1.30;0.70;;;;;;;;;;5010439;28;20184;-85
2022/05/25 19:20:07;;;;;;;2.87;0.80;;;;;;;;;;5010636;28;20216;-85
2022/05/25 19:23:18;;;;;;;1.83;0.90;;;;;;;;;;4990559;28;20197;-85
2022/05/25 19:26:28;;;;;;;3.20;0.80;;;;;;;;;;5005483;28;20204;-85
2022/05/25 19:29:32;;;;;;;2.13;0.70;;;;;;;;;;5021644;28;20181;-85
2022/05/25 19:32:37;;;;;;;2.13;0.63;;;;;;;;;;5010513;28;20200;-85
2022/05/25 19:35:43;;;;;;;1.30;0.67;;;;;;;;;;5021998;28;20181;-84
2022/05/25 19:38:51;;;;;;;5.37;0.80;;;;;;;;;;4998604;28;20205;-85
2022/05/25 19:41:57;;;;;;;2.20;1.20;;;;;;;;;;4990458;28;20190;-85
2022/05/25 19:45:01;;;;;;;2.10;0.93;;;;;;;;;;4986772;28;20537;-85
2022/05/25 19:48:06;;;;;;;1.93;1.00;;;;;;;;;;4999311;28;20524;-84
2022/05/25 19:51:10;;;;;;;1.97;0.90;;;;;;;;;;5009899;28;20220;-85